sensor_id;sensor_type;location;lat;lon;timestamp;P1;durP1;ratioP1;P2;durP2;ratioP2
74541;SDS011;63015;45.378;20.360;2023-02-02T00:01:56;9.50;;;3.08;;
74541;SDS011;63015;45.378;20.360;2023-02-02T00:03:58;7.47;;;3.10;;
74541;SDS011;63015;45.378;20.360;2023-02-02T00:05:59;7.88;;;3.08;;
74541;SDS011;63015;45.378;20.360;2023-02-02T00:08:00;20.23;;;6.45;;
74541;SDS011;63015;45.378;20.360;2023-02-02T00:10:00;22.58;;;7.85;;
74541;SDS011;63015;45.378;20.360;2023-02-02T00:12:01;39.80;;;11.77;;
74541;SDS011;63015;45.378;20.360;2023-02-02T00:14:01;42.97;;;11.90;;
74541;SDS011;63015;45.378;20.360;2023-02-02T00:16:32;28.70;;;9.07;;
74541;SDS011;63015;45.378;20.360;2023-02-02T00:18:34;28.52;;;8.65;;
74541;SDS011;63015;45.378;20.360;2023-02-02T00:20:34;25.20;;;7.90;;
74541;SDS011;63015;45.378;20.360;2023-02-02T00:22:35;26.25;;;8.93;;
74541;SDS011;63015;45.378;20.360;2023-02-02T00:24:35;26.92;;;10.20;;
74541;SDS011;63015;45.378;20.360;2023-02-02T00:26:36;25.42;;;9.77;;
74541;SDS011;63015;45.378;20.360;2023-02-02T00:28:38;36.03;;;13.40;;
74541;SDS011;63015;45.378;20.360;2023-02-02T00:30:39;30.02;;;10.52;;
74541;SDS011;63015;45.378;20.360;2023-02-02T00:32:39;29.90;;;9.80;;
74541;SDS011;63015;45.378;20.360;2023-02-02T00:34:41;25.23;;;7.30;;
74541;SDS011;63015;45.378;20.360;2023-02-02T00:36:42;23.02;;;8.02;;
74541;SDS011;63015;45.378;20.360;2023-02-02T00:38:43;19.58;;;6.63;;
74541;SDS011;63015;45.378;20.360;2023-02-02T00:40:44;24.75;;;7.35;;
74541;SDS011;63015;45.378;20.360;2023-02-02T00:42:45;16.45;;;4.93;;
74541;SDS011;63015;45.378;20.360;2023-02-02T00:44:49;18.52;;;5.57;;
74541;SDS011;63015;45.378;20.360;2023-02-02T00:47:08;19.48;;;5.88;;
74541;SDS011;63015;45.378;20.360;2023-02-02T00:49:09;15.93;;;4.97;;
74541;SDS011;63015;45.378;20.360;2023-02-02T00:51:09;17.08;;;5.72;;
74541;SDS011;63015;45.378;20.360;2023-02-02T00:53:10;14.95;;;6.05;;
74541;SDS011;63015;45.378;20.360;2023-02-02T00:55:10;19.02;;;6.63;;
74541;SDS011;63015;45.378;20.360;2023-02-02T00:57:12;11.32;;;4.47;;
74541;SDS011;63015;45.378;20.360;2023-02-02T00:59:13;12.60;;;5.38;;
74541;SDS011;63015;45.378;20.360;2023-02-02T01:01:18;25.58;;;9.15;;
74541;SDS011;63015;45.378;20.360;2023-02-02T01:03:23;20.48;;;8.73;;
74541;SDS011;63015;45.378;20.360;2023-02-02T01:05:23;20.45;;;8.98;;
74541;SDS011;63015;45.378;20.360;2023-02-02T01:07:24;24.88;;;9.27;;
74541;SDS011;63015;45.378;20.360;2023-02-02T01:09:24;17.45;;;7.45;;
74541;SDS011;63015;45.378;20.360;2023-02-02T01:11:25;17.88;;;5.82;;
74541;SDS011;63015;45.378;20.360;2023-02-02T01:13:26;11.88;;;5.15;;
74541;SDS011;63015;45.378;20.360;2023-02-02T01:15:27;12.38;;;4.95;;
74541;SDS011;63015;45.378;20.360;2023-02-02T01:17:29;11.35;;;4.80;;
74541;SDS011;63015;45.378;20.360;2023-02-02T01:19:30;13.80;;;4.82;;
74541;SDS011;63015;45.378;20.360;2023-02-02T01:21:30;14.40;;;4.93;;
74541;SDS011;63015;45.378;20.360;2023-02-02T01:23:31;12.32;;;4.75;;
74541;SDS011;63015;45.378;20.360;2023-02-02T01:25:33;14.00;;;5.38;;
74541;SDS011;63015;45.378;20.360;2023-02-02T01:27:37;16.52;;;6.38;;
74541;SDS011;63015;45.378;20.360;2023-02-02T01:29:38;13.05;;;5.25;;
74541;SDS011;63015;45.378;20.360;2023-02-02T01:31:38;13.27;;;5.07;;
74541;SDS011;63015;45.378;20.360;2023-02-02T01:33:39;19.77;;;6.85;;
74541;SDS011;63015;45.378;20.360;2023-02-02T01:35:46;15.82;;;5.97;;
74541;SDS011;63015;45.378;20.360;2023-02-02T01:37:50;15.65;;;6.20;;
74541;SDS011;63015;45.378;20.360;2023-02-02T01:39:52;13.80;;;6.07;;
74541;SDS011;63015;45.378;20.360;2023-02-02T01:41:52;12.38;;;5.57;;
74541;SDS011;63015;45.378;20.360;2023-02-02T01:44:03;11.77;;;5.28;;
74541;SDS011;63015;45.378;20.360;2023-02-02T01:46:06;10.27;;;4.22;;
74541;SDS011;63015;45.378;20.360;2023-02-02T01:48:13;13.40;;;5.00;;
74541;SDS011;63015;45.378;20.360;2023-02-02T01:50:15;8.77;;;3.80;;
74541;SDS011;63015;45.378;20.360;2023-02-02T01:52:17;9.65;;;3.85;;
74541;SDS011;63015;45.378;20.360;2023-02-02T01:54:22;9.98;;;3.72;;
74541;SDS011;63015;45.378;20.360;2023-02-02T01:56:37;8.68;;;3.05;;
74541;SDS011;63015;45.378;20.360;2023-02-02T01:58:43;8.32;;;2.83;;
74541;SDS011;63015;45.378;20.360;2023-02-02T02:00:45;6.82;;;2.88;;
74541;SDS011;63015;45.378;20.360;2023-02-02T02:02:46;7.55;;;3.00;;
74541;SDS011;63015;45.378;20.360;2023-02-02T02:04:50;5.90;;;2.20;;
74541;SDS011;63015;45.378;20.360;2023-02-02T02:06:52;7.10;;;2.70;;
74541;SDS011;63015;45.378;20.360;2023-02-02T02:10:59;8.00;;;2.95;;
74541;SDS011;63015;45.378;20.360;2023-02-02T02:13:00;7.43;;;2.67;;
74541;SDS011;63015;45.378;20.360;2023-02-02T02:15:01;8.23;;;2.55;;
74541;SDS011;63015;45.378;20.360;2023-02-02T02:22:09;6.93;;;2.83;;
74541;SDS011;63015;45.378;20.360;2023-02-02T02:27:37;7.93;;;2.67;;
74541;SDS011;63015;45.378;20.360;2023-02-02T02:32:05;6.78;;;2.67;;
74541;SDS011;63015;45.378;20.360;2023-02-02T02:38:58;8.50;;;2.53;;
74541;SDS011;63015;45.378;20.360;2023-02-02T02:41:11;7.82;;;2.92;;
74541;SDS011;63015;45.378;20.360;2023-02-02T02:43:22;7.35;;;2.83;;
74541;SDS011;63015;45.378;20.360;2023-02-02T02:45:29;7.28;;;3.00;;
74541;SDS011;63015;45.378;20.360;2023-02-02T02:47:31;6.22;;;2.75;;
74541;SDS011;63015;45.378;20.360;2023-02-02T02:49:41;7.63;;;3.13;;
74541;SDS011;63015;45.378;20.360;2023-02-02T02:53:48;6.88;;;2.40;;
74541;SDS011;63015;45.378;20.360;2023-02-02T02:58:09;7.32;;;2.83;;
74541;SDS011;63015;45.378;20.360;2023-02-02T03:04:51;6.43;;;2.67;;
74541;SDS011;63015;45.378;20.360;2023-02-02T03:07:09;6.32;;;2.58;;
74541;SDS011;63015;45.378;20.360;2023-02-02T03:11:21;8.73;;;3.15;;
74541;SDS011;63015;45.378;20.360;2023-02-02T03:13:21;7.63;;;3.00;;
74541;SDS011;63015;45.378;20.360;2023-02-02T03:15:23;7.05;;;2.72;;
74541;SDS011;63015;45.378;20.360;2023-02-02T03:17:25;7.07;;;2.92;;
74541;SDS011;63015;45.378;20.360;2023-02-02T03:19:26;8.07;;;3.05;;
74541;SDS011;63015;45.378;20.360;2023-02-02T03:21:27;7.90;;;3.22;;
74541;SDS011;63015;45.378;20.360;2023-02-02T03:23:27;7.45;;;3.42;;
74541;SDS011;63015;45.378;20.360;2023-02-02T03:25:28;7.90;;;2.67;;
74541;SDS011;63015;45.378;20.360;2023-02-02T03:27:28;9.10;;;3.15;;
74541;SDS011;63015;45.378;20.360;2023-02-02T03:29:29;8.38;;;3.35;;
74541;SDS011;63015;45.378;20.360;2023-02-02T03:31:30;9.82;;;3.67;;
74541;SDS011;63015;45.378;20.360;2023-02-02T03:33:30;12.75;;;4.30;;
74541;SDS011;63015;45.378;20.360;2023-02-02T03:35:33;11.70;;;3.72;;
74541;SDS011;63015;45.378;20.360;2023-02-02T03:37:33;10.32;;;3.38;;
74541;SDS011;63015;45.378;20.360;2023-02-02T03:39:34;8.30;;;3.97;;
74541;SDS011;63015;45.378;20.360;2023-02-02T03:41:34;7.53;;;3.50;;
74541;SDS011;63015;45.378;20.360;2023-02-02T03:43:35;12.05;;;4.55;;
74541;SDS011;63015;45.378;20.360;2023-02-02T03:45:35;14.55;;;5.00;;
74541;SDS011;63015;45.378;20.360;2023-02-02T03:47:38;16.38;;;5.80;;
74541;SDS011;63015;45.378;20.360;2023-02-02T03:49:38;12.15;;;5.35;;
74541;SDS011;63015;45.378;20.360;2023-02-02T03:51:39;11.00;;;4.57;;
74541;SDS011;63015;45.378;20.360;2023-02-02T03:53:40;11.85;;;5.00;;
74541;SDS011;63015;45.378;20.360;2023-02-02T03:55:44;12.05;;;4.43;;
74541;SDS011;63015;45.378;20.360;2023-02-02T03:57:44;11.88;;;4.50;;
74541;SDS011;63015;45.378;20.360;2023-02-02T03:59:45;9.75;;;4.30;;
74541;SDS011;63015;45.378;20.360;2023-02-02T04:01:45;9.90;;;4.55;;
74541;SDS011;63015;45.378;20.360;2023-02-02T04:03:48;14.80;;;4.57;;
74541;SDS011;63015;45.378;20.360;2023-02-02T04:05:49;10.93;;;3.97;;
74541;SDS011;63015;45.378;20.360;2023-02-02T04:07:50;9.75;;;4.07;;
74541;SDS011;63015;45.378;20.360;2023-02-02T04:09:50;9.50;;;4.38;;
74541;SDS011;63015;45.378;20.360;2023-02-02T04:11:51;8.60;;;4.20;;
74541;SDS011;63015;45.378;20.360;2023-02-02T04:13:51;9.40;;;4.10;;
74541;SDS011;63015;45.378;20.360;2023-02-02T04:15:56;7.95;;;3.67;;
74541;SDS011;63015;45.378;20.360;2023-02-02T04:18:00;9.98;;;4.15;;
74541;SDS011;63015;45.378;20.360;2023-02-02T04:20:01;9.40;;;4.22;;
74541;SDS011;63015;45.378;20.360;2023-02-02T04:22:02;10.40;;;4.53;;
74541;SDS011;63015;45.378;20.360;2023-02-02T04:24:04;9.25;;;4.10;;
74541;SDS011;63015;45.378;20.360;2023-02-02T04:26:05;10.55;;;4.57;;
74541;SDS011;63015;45.378;20.360;2023-02-02T04:28:06;10.85;;;4.43;;
74541;SDS011;63015;45.378;20.360;2023-02-02T04:30:06;10.38;;;4.43;;
74541;SDS011;63015;45.378;20.360;2023-02-02T04:32:08;11.82;;;5.00;;
74541;SDS011;63015;45.378;20.360;2023-02-02T04:34:08;9.75;;;4.50;;
74541;SDS011;63015;45.378;20.360;2023-02-02T04:36:09;10.02;;;4.65;;
74541;SDS011;63015;45.378;20.360;2023-02-02T04:38:10;9.43;;;3.67;;
74541;SDS011;63015;45.378;20.360;2023-02-02T04:40:11;11.80;;;5.57;;
74541;SDS011;63015;45.378;20.360;2023-02-02T04:42:12;9.60;;;4.05;;
74541;SDS011;63015;45.378;20.360;2023-02-02T04:44:13;7.18;;;3.38;;
74541;SDS011;63015;45.378;20.360;2023-02-02T04:46:17;11.82;;;5.55;;
74541;SDS011;63015;45.378;20.360;2023-02-02T04:48:18;11.55;;;5.93;;
74541;SDS011;63015;45.378;20.360;2023-02-02T04:50:19;14.95;;;6.28;;
74541;SDS011;63015;45.378;20.360;2023-02-02T04:52:19;10.48;;;4.93;;
74541;SDS011;63015;45.378;20.360;2023-02-02T04:54:20;12.20;;;5.10;;
74541;SDS011;63015;45.378;20.360;2023-02-02T04:56:20;12.10;;;4.68;;
74541;SDS011;63015;45.378;20.360;2023-02-02T04:58:21;7.63;;;4.00;;
74541;SDS011;63015;45.378;20.360;2023-02-02T05:00:22;10.85;;;4.90;;
74541;SDS011;63015;45.378;20.360;2023-02-02T05:02:23;10.75;;;4.95;;
74541;SDS011;63015;45.378;20.360;2023-02-02T05:04:23;9.15;;;3.88;;
74541;SDS011;63015;45.378;20.360;2023-02-02T05:06:24;5.93;;;3.15;;
74541;SDS011;63015;45.378;20.360;2023-02-02T05:08:25;12.73;;;5.18;;
74541;SDS011;63015;45.378;20.360;2023-02-02T05:10:25;13.82;;;5.65;;
74541;SDS011;63015;45.378;20.360;2023-02-02T05:12:26;11.68;;;5.30;;
74541;SDS011;63015;45.378;20.360;2023-02-02T05:14:26;9.32;;;4.65;;
74541;SDS011;63015;45.378;20.360;2023-02-02T05:16:27;12.35;;;5.57;;
74541;SDS011;63015;45.378;20.360;2023-02-02T05:18:27;12.75;;;5.95;;
74541;SDS011;63015;45.378;20.360;2023-02-02T05:20:28;13.68;;;6.85;;
74541;SDS011;63015;45.378;20.360;2023-02-02T05:22:28;7.72;;;3.65;;
74541;SDS011;63015;45.378;20.360;2023-02-02T05:24:29;9.95;;;3.67;;
74541;SDS011;63015;45.378;20.360;2023-02-02T05:26:29;12.05;;;5.72;;
74541;SDS011;63015;45.378;20.360;2023-02-02T05:28:30;12.45;;;5.55;;
74541;SDS011;63015;45.378;20.360;2023-02-02T05:30:30;13.88;;;5.68;;
74541;SDS011;63015;45.378;20.360;2023-02-02T05:32:31;16.10;;;6.90;;
74541;SDS011;63015;45.378;20.360;2023-02-02T05:34:31;10.48;;;4.55;;
74541;SDS011;63015;45.378;20.360;2023-02-02T05:36:32;14.13;;;7.20;;
74541;SDS011;63015;45.378;20.360;2023-02-02T05:38:33;15.13;;;6.95;;
74541;SDS011;63015;45.378;20.360;2023-02-02T05:40:34;13.77;;;6.88;;
74541;SDS011;63015;45.378;20.360;2023-02-02T05:42:34;18.63;;;7.78;;
74541;SDS011;63015;45.378;20.360;2023-02-02T05:44:35;17.73;;;7.30;;
74541;SDS011;63015;45.378;20.360;2023-02-02T05:46:35;14.48;;;6.72;;
74541;SDS011;63015;45.378;20.360;2023-02-02T05:48:36;15.98;;;7.22;;
74541;SDS011;63015;45.378;20.360;2023-02-02T05:50:36;12.40;;;5.78;;
74541;SDS011;63015;45.378;20.360;2023-02-02T05:52:37;17.45;;;6.65;;
74541;SDS011;63015;45.378;20.360;2023-02-02T05:54:40;13.60;;;6.85;;
74541;SDS011;63015;45.378;20.360;2023-02-02T05:56:40;12.63;;;6.07;;
74541;SDS011;63015;45.378;20.360;2023-02-02T05:58:42;16.58;;;6.50;;
74541;SDS011;63015;45.378;20.360;2023-02-02T06:00:43;7.35;;;3.90;;
74541;SDS011;63015;45.378;20.360;2023-02-02T06:02:44;10.50;;;4.30;;
74541;SDS011;63015;45.378;20.360;2023-02-02T06:04:44;10.27;;;4.80;;
74541;SDS011;63015;45.378;20.360;2023-02-02T06:06:45;8.95;;;4.15;;
74541;SDS011;63015;45.378;20.360;2023-02-02T06:08:47;8.20;;;3.22;;
74541;SDS011;63015;45.378;20.360;2023-02-02T06:10:47;6.55;;;2.67;;
74541;SDS011;63015;45.378;20.360;2023-02-02T06:12:48;8.57;;;4.07;;
74541;SDS011;63015;45.378;20.360;2023-02-02T06:14:48;7.75;;;3.35;;
74541;SDS011;63015;45.378;20.360;2023-02-02T06:16:49;6.80;;;3.72;;
74541;SDS011;63015;45.378;20.360;2023-02-02T06:18:49;6.50;;;3.05;;
74541;SDS011;63015;45.378;20.360;2023-02-02T06:20:55;9.10;;;4.68;;
74541;SDS011;63015;45.378;20.360;2023-02-02T06:22:58;6.80;;;2.97;;
74541;SDS011;63015;45.378;20.360;2023-02-02T06:24:59;12.02;;;4.57;;
74541;SDS011;63015;45.378;20.360;2023-02-02T06:26:59;9.27;;;4.05;;
74541;SDS011;63015;45.378;20.360;2023-02-02T06:29:00;9.30;;;4.07;;
74541;SDS011;63015;45.378;20.360;2023-02-02T06:31:06;9.20;;;4.53;;
74541;SDS011;63015;45.378;20.360;2023-02-02T06:33:09;8.25;;;3.65;;
74541;SDS011;63015;45.378;20.360;2023-02-02T06:35:09;11.50;;;4.68;;
74541;SDS011;63015;45.378;20.360;2023-02-02T06:37:10;4.43;;;1.90;;
74541;SDS011;63015;45.378;20.360;2023-02-02T06:39:10;3.95;;;1.65;;
74541;SDS011;63015;45.378;20.360;2023-02-02T06:41:11;6.00;;;2.35;;
74541;SDS011;63015;45.378;20.360;2023-02-02T06:43:11;5.85;;;2.22;;
74541;SDS011;63015;45.378;20.360;2023-02-02T06:45:14;5.22;;;1.92;;
74541;SDS011;63015;45.378;20.360;2023-02-02T06:47:15;4.82;;;1.23;;
74541;SDS011;63015;45.378;20.360;2023-02-02T06:49:15;4.28;;;1.02;;
74541;SDS011;63015;45.378;20.360;2023-02-02T06:51:16;3.00;;;0.93;;
74541;SDS011;63015;45.378;20.360;2023-02-02T06:53:16;3.65;;;1.38;;
74541;SDS011;63015;45.378;20.360;2023-02-02T06:55:22;4.15;;;1.30;;
74541;SDS011;63015;45.378;20.360;2023-02-02T06:57:22;2.88;;;0.80;;
74541;SDS011;63015;45.378;20.360;2023-02-02T06:59:23;2.65;;;0.88;;
74541;SDS011;63015;45.378;20.360;2023-02-02T07:01:23;3.83;;;0.70;;
74541;SDS011;63015;45.378;20.360;2023-02-02T07:03:24;5.13;;;1.05;;
74541;SDS011;63015;45.378;20.360;2023-02-02T07:05:26;4.13;;;0.98;;
74541;SDS011;63015;45.378;20.360;2023-02-02T07:07:26;3.10;;;0.43;;
74541;SDS011;63015;45.378;20.360;2023-02-02T07:09:33;5.40;;;1.80;;
74541;SDS011;63015;45.378;20.360;2023-02-02T07:11:37;7.70;;;3.40;;
74541;SDS011;63015;45.378;20.360;2023-02-02T07:13:37;3.25;;;1.15;;
74541;SDS011;63015;45.378;20.360;2023-02-02T07:15:38;1.77;;;0.70;;
74541;SDS011;63015;45.378;20.360;2023-02-02T07:17:39;4.68;;;1.58;;
74541;SDS011;63015;45.378;20.360;2023-02-02T07:19:40;4.50;;;1.50;;
74541;SDS011;63015;45.378;20.360;2023-02-02T07:21:40;8.55;;;2.03;;
74541;SDS011;63015;45.378;20.360;2023-02-02T07:23:41;6.90;;;2.80;;
74541;SDS011;63015;45.378;20.360;2023-02-02T07:25:42;6.25;;;2.40;;
74541;SDS011;63015;45.378;20.360;2023-02-02T07:27:42;5.88;;;1.60;;
74541;SDS011;63015;45.378;20.360;2023-02-02T07:29:43;4.28;;;1.10;;
74541;SDS011;63015;45.378;20.360;2023-02-02T07:31:43;6.50;;;1.85;;
74541;SDS011;63015;45.378;20.360;2023-02-02T07:33:44;4.55;;;1.88;;
74541;SDS011;63015;45.378;20.360;2023-02-02T07:35:46;5.07;;;2.05;;
74541;SDS011;63015;45.378;20.360;2023-02-02T07:37:53;5.18;;;2.00;;
74541;SDS011;63015;45.378;20.360;2023-02-02T07:39:54;5.95;;;1.98;;
74541;SDS011;63015;45.378;20.360;2023-02-02T07:41:54;5.15;;;1.75;;
74541;SDS011;63015;45.378;20.360;2023-02-02T07:44:09;4.47;;;1.55;;
74541;SDS011;63015;45.378;20.360;2023-02-02T07:46:14;4.30;;;1.52;;
74541;SDS011;63015;45.378;20.360;2023-02-02T07:48:15;3.10;;;1.30;;
74541;SDS011;63015;45.378;20.360;2023-02-02T07:50:16;3.58;;;1.13;;
74541;SDS011;63015;45.378;20.360;2023-02-02T07:52:18;3.15;;;1.10;;
74541;SDS011;63015;45.378;20.360;2023-02-02T07:54:19;3.70;;;1.25;;
74541;SDS011;63015;45.378;20.360;2023-02-02T07:56:26;7.30;;;2.20;;
74541;SDS011;63015;45.378;20.360;2023-02-02T07:58:27;5.32;;;1.55;;
74541;SDS011;63015;45.378;20.360;2023-02-02T08:00:27;4.45;;;1.88;;
74541;SDS011;63015;45.378;20.360;2023-02-02T08:02:28;7.13;;;2.30;;
74541;SDS011;63015;45.378;20.360;2023-02-02T08:04:29;5.30;;;2.28;;
74541;SDS011;63015;45.378;20.360;2023-02-02T08:06:31;8.40;;;3.58;;
74541;SDS011;63015;45.378;20.360;2023-02-02T08:08:33;8.57;;;2.80;;
74541;SDS011;63015;45.378;20.360;2023-02-02T08:10:34;9.80;;;3.63;;
74541;SDS011;63015;45.378;20.360;2023-02-02T08:12:34;8.23;;;3.60;;
74541;SDS011;63015;45.378;20.360;2023-02-02T08:14:35;12.75;;;5.15;;
74541;SDS011;63015;45.378;20.360;2023-02-02T08:16:35;12.93;;;5.63;;
74541;SDS011;63015;45.378;20.360;2023-02-02T08:18:36;11.55;;;4.50;;
74541;SDS011;63015;45.378;20.360;2023-02-02T08:20:37;8.38;;;3.40;;
74541;SDS011;63015;45.378;20.360;2023-02-02T08:22:38;7.57;;;2.92;;
74541;SDS011;63015;45.378;20.360;2023-02-02T08:24:39;11.88;;;5.38;;
74541;SDS011;63015;45.378;20.360;2023-02-02T08:26:41;6.57;;;2.95;;
74541;SDS011;63015;45.378;20.360;2023-02-02T08:28:43;8.90;;;3.20;;
74541;SDS011;63015;45.378;20.360;2023-02-02T08:30:45;5.10;;;2.50;;
74541;SDS011;63015;45.378;20.360;2023-02-02T08:32:46;5.07;;;1.95;;
74541;SDS011;63015;45.378;20.360;2023-02-02T08:34:47;9.43;;;2.60;;
74541;SDS011;63015;45.378;20.360;2023-02-02T08:36:48;9.35;;;3.47;;
74541;SDS011;63015;45.378;20.360;2023-02-02T08:38:49;9.13;;;3.03;;
74541;SDS011;63015;45.378;20.360;2023-02-02T08:40:49;5.40;;;2.22;;
74541;SDS011;63015;45.378;20.360;2023-02-02T08:42:53;6.25;;;2.20;;
74541;SDS011;63015;45.378;20.360;2023-02-02T08:44:54;4.00;;;1.45;;
74541;SDS011;63015;45.378;20.360;2023-02-02T08:46:54;6.13;;;1.70;;
74541;SDS011;63015;45.378;20.360;2023-02-02T08:48:55;4.60;;;1.60;;
74541;SDS011;63015;45.378;20.360;2023-02-02T08:50:56;5.00;;;1.52;;
74541;SDS011;63015;45.378;20.360;2023-02-02T08:52:57;6.78;;;2.40;;
74541;SDS011;63015;45.378;20.360;2023-02-02T08:54:58;6.13;;;2.05;;
74541;SDS011;63015;45.378;20.360;2023-02-02T08:56:58;9.30;;;1.60;;
74541;SDS011;63015;45.378;20.360;2023-02-02T08:58:59;4.50;;;1.23;;
74541;SDS011;63015;45.378;20.360;2023-02-02T09:01:02;3.92;;;1.25;;
74541;SDS011;63015;45.378;20.360;2023-02-02T09:03:05;4.38;;;1.13;;
74541;SDS011;63015;45.378;20.360;2023-02-02T09:05:06;7.10;;;1.83;;
74541;SDS011;63015;45.378;20.360;2023-02-02T09:07:06;3.45;;;0.75;;
74541;SDS011;63015;45.378;20.360;2023-02-02T09:09:08;2.00;;;0.68;;
74541;SDS011;63015;45.378;20.360;2023-02-02T09:11:14;1.98;;;0.50;;
74541;SDS011;63015;45.378;20.360;2023-02-02T09:13:16;3.97;;;1.13;;
74541;SDS011;63015;45.378;20.360;2023-02-02T09:15:17;4.47;;;0.82;;
74541;SDS011;63015;45.378;20.360;2023-02-02T09:17:17;3.47;;;0.88;;
74541;SDS011;63015;45.378;20.360;2023-02-02T09:19:18;4.95;;;0.85;;
74541;SDS011;63015;45.378;20.360;2023-02-02T09:21:18;3.42;;;0.85;;
74541;SDS011;63015;45.378;20.360;2023-02-02T09:23:19;1.45;;;0.50;;
74541;SDS011;63015;45.378;20.360;2023-02-02T09:25:20;1.83;;;0.30;;
74541;SDS011;63015;45.378;20.360;2023-02-02T09:27:20;3.83;;;0.65;;
74541;SDS011;63015;45.378;20.360;2023-02-02T09:29:21;3.20;;;0.70;;
74541;SDS011;63015;45.378;20.360;2023-02-02T09:31:22;1.25;;;0.25;;
74541;SDS011;63015;45.378;20.360;2023-02-02T09:33:23;2.63;;;0.50;;
74541;SDS011;63015;45.378;20.360;2023-02-02T09:35:24;6.90;;;1.20;;
74541;SDS011;63015;45.378;20.360;2023-02-02T09:37:27;4.25;;;0.73;;
74541;SDS011;63015;45.378;20.360;2023-02-02T09:43:50;2.50;;;0.80;;
74541;SDS011;63015;45.378;20.360;2023-02-02T09:48:23;3.92;;;0.98;;
74541;SDS011;63015;45.378;20.360;2023-02-02T09:50:44;3.20;;;0.45;;
74541;SDS011;63015;45.378;20.360;2023-02-02T09:53:01;4.55;;;0.80;;
74541;SDS011;63015;45.378;20.360;2023-02-02T09:55:28;4.22;;;0.85;;
74541;SDS011;63015;45.378;20.360;2023-02-02T09:57:43;3.53;;;0.95;;
74541;SDS011;63015;45.378;20.360;2023-02-02T09:59:48;1.88;;;0.63;;
74541;SDS011;63015;45.378;20.360;2023-02-02T10:01:51;2.55;;;0.68;;
74541;SDS011;63015;45.378;20.360;2023-02-02T10:04:05;3.65;;;0.85;;
74541;SDS011;63015;45.378;20.360;2023-02-02T10:06:37;5.60;;;1.73;;
74541;SDS011;63015;45.378;20.360;2023-02-02T10:08:43;7.85;;;1.40;;
74541;SDS011;63015;45.378;20.360;2023-02-02T10:10:48;6.32;;;1.67;;
74541;SDS011;63015;45.378;20.360;2023-02-02T10:12:58;5.78;;;1.48;;
74541;SDS011;63015;45.378;20.360;2023-02-02T10:15:20;2.60;;;1.00;;
74541;SDS011;63015;45.378;20.360;2023-02-02T10:19:38;3.40;;;0.80;;
74541;SDS011;63015;45.378;20.360;2023-02-02T10:24:20;2.22;;;0.60;;
74541;SDS011;63015;45.378;20.360;2023-02-02T10:33:47;4.82;;;0.93;;
74541;SDS011;63015;45.378;20.360;2023-02-02T10:36:14;6.75;;;2.03;;
74541;SDS011;63015;45.378;20.360;2023-02-02T10:38:49;2.75;;;0.60;;
74541;SDS011;63015;45.378;20.360;2023-02-02T10:45:47;2.13;;;0.70;;
74541;SDS011;63015;45.378;20.360;2023-02-02T10:49:59;3.33;;;1.00;;
74541;SDS011;63015;45.378;20.360;2023-02-02T10:52:17;4.70;;;1.88;;
74541;SDS011;63015;45.378;20.360;2023-02-02T10:56:50;6.78;;;2.55;;
74541;SDS011;63015;45.378;20.360;2023-02-02T10:59:00;4.65;;;1.67;;
74541;SDS011;63015;45.378;20.360;2023-02-02T11:01:06;5.22;;;1.30;;
74541;SDS011;63015;45.378;20.360;2023-02-02T11:03:10;3.67;;;1.08;;
74541;SDS011;63015;45.378;20.360;2023-02-02T11:05:24;4.88;;;1.27;;
74541;SDS011;63015;45.378;20.360;2023-02-02T11:07:45;3.85;;;0.70;;
74541;SDS011;63015;45.378;20.360;2023-02-02T11:09:45;2.83;;;0.82;;
74541;SDS011;63015;45.378;20.360;2023-02-02T11:11:49;3.55;;;0.75;;
74541;SDS011;63015;45.378;20.360;2023-02-02T11:13:58;3.33;;;0.73;;
74541;SDS011;63015;45.378;20.360;2023-02-02T11:18:26;3.60;;;0.73;;
74541;SDS011;63015;45.378;20.360;2023-02-02T11:20:32;1.83;;;0.80;;
74541;SDS011;63015;45.378;20.360;2023-02-02T11:22:36;2.05;;;0.35;;
74541;SDS011;63015;45.378;20.360;2023-02-02T11:24:44;3.10;;;0.70;;
74541;SDS011;63015;45.378;20.360;2023-02-02T11:28:55;2.88;;;0.70;;
74541;SDS011;63015;45.378;20.360;2023-02-02T11:30:56;4.18;;;0.68;;
74541;SDS011;63015;45.378;20.360;2023-02-02T11:32:57;2.50;;;0.70;;
74541;SDS011;63015;45.378;20.360;2023-02-02T11:37:11;3.22;;;0.88;;
74541;SDS011;63015;45.378;20.360;2023-02-02T11:39:14;2.45;;;0.43;;
74541;SDS011;63015;45.378;20.360;2023-02-02T11:41:19;3.30;;;0.80;;
74541;SDS011;63015;45.378;20.360;2023-02-02T11:43:36;2.35;;;0.52;;
74541;SDS011;63015;45.378;20.360;2023-02-02T11:45:41;5.55;;;0.60;;
74541;SDS011;63015;45.378;20.360;2023-02-02T11:47:44;1.88;;;0.75;;
74541;SDS011;63015;45.378;20.360;2023-02-02T11:49:45;2.40;;;0.50;;
74541;SDS011;63015;45.378;20.360;2023-02-02T11:52:00;3.13;;;0.82;;
74541;SDS011;63015;45.378;20.360;2023-02-02T11:54:15;3.35;;;0.85;;
74541;SDS011;63015;45.378;20.360;2023-02-02T11:56:22;5.05;;;0.98;;
74541;SDS011;63015;45.378;20.360;2023-02-02T11:58:25;2.72;;;1.05;;
74541;SDS011;63015;45.378;20.360;2023-02-02T12:00:28;3.42;;;0.70;;
74541;SDS011;63015;45.378;20.360;2023-02-02T12:02:30;3.00;;;0.60;;
74541;SDS011;63015;45.378;20.360;2023-02-02T12:04:31;5.13;;;1.77;;
74541;SDS011;63015;45.378;20.360;2023-02-02T12:08:32;3.20;;;0.75;;
74541;SDS011;63015;45.378;20.360;2023-02-02T12:10:35;1.90;;;0.57;;
74541;SDS011;63015;45.378;20.360;2023-02-02T12:26:26;3.63;;;0.60;;
74541;SDS011;63015;45.378;20.360;2023-02-02T12:35:04;2.35;;;0.60;;
74541;SDS011;63015;45.378;20.360;2023-02-02T12:43:49;2.95;;;0.80;;
74541;SDS011;63015;45.378;20.360;2023-02-02T12:53:23;2.03;;;0.50;;
74541;SDS011;63015;45.378;20.360;2023-02-02T13:02:22;6.38;;;0.60;;
74541;SDS011;63015;45.378;20.360;2023-02-02T13:10:48;3.35;;;0.70;;
74541;SDS011;63015;45.378;20.360;2023-02-02T13:12:55;1.70;;;0.63;;
74541;SDS011;63015;45.378;20.360;2023-02-02T13:15:02;3.92;;;0.60;;
74541;SDS011;63015;45.378;20.360;2023-02-02T13:17:24;4.35;;;0.47;;
74541;SDS011;63015;45.378;20.360;2023-02-02T13:19:34;2.38;;;0.60;;
74541;SDS011;63015;45.378;20.360;2023-02-02T13:21:39;10.32;;;2.63;;
74541;SDS011;63015;45.378;20.360;2023-02-02T13:23:43;5.95;;;1.40;;
74541;SDS011;63015;45.378;20.360;2023-02-02T13:25:51;2.75;;;0.60;;
74541;SDS011;63015;45.378;20.360;2023-02-02T13:27:57;1.80;;;0.47;;
74541;SDS011;63015;45.378;20.360;2023-02-02T13:30:19;2.13;;;0.38;;
74541;SDS011;63015;45.378;20.360;2023-02-02T13:32:29;3.72;;;0.57;;
74541;SDS011;63015;45.378;20.360;2023-02-02T13:37:11;3.92;;;0.60;;
74541;SDS011;63015;45.378;20.360;2023-02-02T13:39:14;2.50;;;0.45;;
74541;SDS011;63015;45.378;20.360;2023-02-02T13:41:19;1.63;;;0.30;;
74541;SDS011;63015;45.378;20.360;2023-02-02T13:46:48;4.72;;;0.50;;
74541;SDS011;63015;45.378;20.360;2023-02-02T14:02:34;2.92;;;0.73;;
74541;SDS011;63015;45.378;20.360;2023-02-02T14:04:43;3.15;;;0.50;;
74541;SDS011;63015;45.378;20.360;2023-02-02T14:06:55;1.98;;;0.60;;
74541;SDS011;63015;45.378;20.360;2023-02-02T14:09:02;3.38;;;0.70;;
74541;SDS011;63015;45.378;20.360;2023-02-02T14:11:05;2.38;;;0.52;;
74541;SDS011;63015;45.378;20.360;2023-02-02T14:15:43;1.52;;;0.30;;
74541;SDS011;63015;45.378;20.360;2023-02-02T14:19:50;1.55;;;0.22;;
74541;SDS011;63015;45.378;20.360;2023-02-02T14:24:36;0.75;;;0.20;;
74541;SDS011;63015;45.378;20.360;2023-02-02T14:28:45;2.67;;;0.40;;
74541;SDS011;63015;45.378;20.360;2023-02-02T14:30:48;2.10;;;0.40;;
74541;SDS011;63015;45.378;20.360;2023-02-02T14:39:25;2.58;;;0.35;;